Catheys Valley, CA (95306)

12:40 AM PDT on March 27, 2017 (GMT -0700)
Ben Hur/Buckeye | | Change Station

Elev 1467 ft 37.42 °N, 119.97 °W | Updated 36 seconds ago

Rain
Rain
47.3 °F
Feels Like 47 °F
N
0.0
Wind Variable Wind from ESE

Today
High -- | Low -- °F
--% Chance of Precip.
Yesterday
High -- | Low -- °F
Precip. -- in
Pressure 30.08 in
Visibility 10.0 miles
Clouds Few 1300 ft
Mostly Cloudy 4400 ft
Overcast 5000 ft
Windchill 47 °F
Dew Point 44 °F
Humidity 90%
Rainfall 0.00 in
Snow Depth Not available.
6:52 AM 7:18 PM
Waning Crescent, 1% visible
METAR KMCE 270653Z AUTO 00000KT 10SM FEW013 BKN044 OVC050 12/11 A3008 RMK AO2 RAE28 SLP185 P0001 T01220111 TSNO
Pressure 30.08 in
Visibility 10.0 miles
Clouds Few 1300 ft
Mostly Cloudy 4400 ft
Overcast 5000 ft
Windchill 47 °F
Dew Point 44 °F
Humidity 90%
Rainfall 0.00 in
Snow Depth Not available.
6:52 AM 7:18 PM
Waning Crescent, 1% visible
METAR KMCE 270653Z AUTO 00000KT 10SM FEW013 BKN044 OVC050 12/11 A3008 RMK AO2 RAE28 SLP185 P0001 T01220111 TSNO

Get Severe Weather Alerts

Thanks for signing up!

Be on the lookout for a verification email in your inbox.

You'll start receiving the daily forecast at 8 AM.

×

10-Day Weather Forecast

Almanac

Astronomy

Mar. 27, 2017 Rise Set
Actual Time
Civil Twilight
Nautical Twilight
Astronomical Twilight
Moon
Length of Visible Light
Length of Day
Tomorrow will be .
, % of the Moon is Illuminated

Today's Extremes

State Highs State Lows

Community

WunderPhotos

Upload Photos

1,962,540 photos uploaded!

WunderBlog® & News

Nearby

Air Quality

  Air Quality AQ Index Pollutant
Not available.

Snow Depth

Station Depth Elevation

Earthquake Activity

City Distance Mag. Time & Date
Minimum magnitude displayed is 2.5.

Earthquake Activity

City Distance Mag. Time & Date
Minimum magnitude displayed is 2.5.

Coastal Water Temperatures

Place Temperature

Stations

Nearby Weather Stations

Station Location Temp. Windchill Dew Point Humidity Wind Precip. Elev Updated Type
                   

Watches & Warnings

There are currently no watches in effect.